sensor_id;sensor_type;location;lat;lon;timestamp;temperature;humidity
37658;DHT22;23500;53.268;8.308;2022-07-10T00:00:29;19.90;64.70
37658;DHT22;23500;53.268;8.308;2022-07-10T00:02:55;19.80;65.20
37658;DHT22;23500;53.268;8.308;2022-07-10T00:05:22;19.80;64.90
37658;DHT22;23500;53.268;8.308;2022-07-10T00:07:48;19.80;65.20
37658;DHT22;23500;53.268;8.308;2022-07-10T00:10:14;19.80;64.90
37658;DHT22;23500;53.268;8.308;2022-07-10T00:12:40;19.80;65.30
37658;DHT22;23500;53.268;8.308;2022-07-10T00:15:06;19.80;65.00
37658;DHT22;23500;53.268;8.308;2022-07-10T00:17:32;19.80;65.10
37658;DHT22;23500;53.268;8.308;2022-07-10T00:19:59;19.80;65.30
37658;DHT22;23500;53.268;8.308;2022-07-10T00:22:25;19.70;64.90
37658;DHT22;23500;53.268;8.308;2022-07-10T00:24:50;19.70;65.00
37658;DHT22;23500;53.268;8.308;2022-07-10T00:27:17;19.70;65.10
37658;DHT22;23500;53.268;8.308;2022-07-10T00:29:43;19.70;65.50
37658;DHT22;23500;53.268;8.308;2022-07-10T00:32:09;19.70;66.00
37658;DHT22;23500;53.268;8.308;2022-07-10T00:34:34;19.70;65.70
37658;DHT22;23500;53.268;8.308;2022-07-10T00:37:01;19.70;66.40
37658;DHT22;23500;53.268;8.308;2022-07-10T00:39:27;19.70;66.20
37658;DHT22;23500;53.268;8.308;2022-07-10T00:41:53;19.70;66.30
37658;DHT22;23500;53.268;8.308;2022-07-10T00:44:18;19.70;66.20
37658;DHT22;23500;53.268;8.308;2022-07-10T00:46:44;19.70;66.00
37658;DHT22;23500;53.268;8.308;2022-07-10T00:49:09;19.70;66.30
37658;DHT22;23500;53.268;8.308;2022-07-10T00:51:36;19.70;65.70
37658;DHT22;23500;53.268;8.308;2022-07-10T00:54:03;19.70;65.40
37658;DHT22;23500;53.268;8.308;2022-07-10T00:56:30;19.70;66.80
37658;DHT22;23500;53.268;8.308;2022-07-10T00:58:56;19.70;65.60
37658;DHT22;23500;53.268;8.308;2022-07-10T01:01:22;19.70;66.20
37658;DHT22;23500;53.268;8.308;2022-07-10T01:03:49;19.70;66.30
37658;DHT22;23500;53.268;8.308;2022-07-10T01:06:16;19.70;65.60
37658;DHT22;23500;53.268;8.308;2022-07-10T01:08:45;19.70;67.20
37658;DHT22;23500;53.268;8.308;2022-07-10T01:11:11;19.70;67.20
37658;DHT22;23500;53.268;8.308;2022-07-10T01:13:39;19.70;66.30
37658;DHT22;23500;53.268;8.308;2022-07-10T01:16:04;19.70;65.60
37658;DHT22;23500;53.268;8.308;2022-07-10T01:18:30;19.70;65.70
37658;DHT22;23500;53.268;8.308;2022-07-10T01:20:56;19.70;65.70
37658;DHT22;23500;53.268;8.308;2022-07-10T01:23:23;19.70;65.90
37658;DHT22;23500;53.268;8.308;2022-07-10T01:25:49;19.60;65.90
37658;DHT22;23500;53.268;8.308;2022-07-10T01:28:20;19.60;66.00
37658;DHT22;23500;53.268;8.308;2022-07-10T01:30:46;19.60;65.70
37658;DHT22;23500;53.268;8.308;2022-07-10T01:33:12;19.60;65.70
37658;DHT22;23500;53.268;8.308;2022-07-10T01:35:38;19.60;65.10
37658;DHT22;23500;53.268;8.308;2022-07-10T01:38:04;19.60;65.30
37658;DHT22;23500;53.268;8.308;2022-07-10T01:40:30;19.50;65.50
37658;DHT22;23500;53.268;8.308;2022-07-10T01:42:55;19.50;65.30
37658;DHT22;23500;53.268;8.308;2022-07-10T01:45:21;19.50;65.90
37658;DHT22;23500;53.268;8.308;2022-07-10T01:47:47;19.50;65.60
37658;DHT22;23500;53.268;8.308;2022-07-10T01:50:13;19.50;65.70
37658;DHT22;23500;53.268;8.308;2022-07-10T01:52:39;19.50;66.20
37658;DHT22;23500;53.268;8.308;2022-07-10T01:55:06;19.50;66.10
37658;DHT22;23500;53.268;8.308;2022-07-10T01:57:32;19.50;66.10
37658;DHT22;23500;53.268;8.308;2022-07-10T01:59:58;19.50;66.10
37658;DHT22;23500;53.268;8.308;2022-07-10T02:02:24;19.50;66.40
37658;DHT22;23500;53.268;8.308;2022-07-10T02:04:50;19.50;66.30
37658;DHT22;23500;53.268;8.308;2022-07-10T02:07:17;19.50;66.10
37658;DHT22;23500;53.268;8.308;2022-07-10T02:09:44;19.50;66.30
37658;DHT22;23500;53.268;8.308;2022-07-10T02:12:12;19.50;66.00
37658;DHT22;23500;53.268;8.308;2022-07-10T02:14:39;19.40;66.00
37658;DHT22;23500;53.268;8.308;2022-07-10T02:17:05;19.40;66.30
37658;DHT22;23500;53.268;8.308;2022-07-10T02:19:31;19.40;66.00
37658;DHT22;23500;53.268;8.308;2022-07-10T02:21:57;19.40;66.20
37658;DHT22;23500;53.268;8.308;2022-07-10T02:24:22;19.40;66.70
37658;DHT22;23500;53.268;8.308;2022-07-10T02:26:49;19.40;67.30
37658;DHT22;23500;53.268;8.308;2022-07-10T02:29:15;19.40;67.40
37658;DHT22;23500;53.268;8.308;2022-07-10T02:31:41;19.50;67.90
37658;DHT22;23500;53.268;8.308;2022-07-10T02:34:11;19.50;68.30
37658;DHT22;23500;53.268;8.308;2022-07-10T02:36:37;19.50;67.90
37658;DHT22;23500;53.268;8.308;2022-07-10T02:39:07;19.50;67.90
37658;DHT22;23500;53.268;8.308;2022-07-10T02:41:32;19.50;67.70
37658;DHT22;23500;53.268;8.308;2022-07-10T02:43:58;19.50;67.70
37658;DHT22;23500;53.268;8.308;2022-07-10T02:46:24;19.50;67.30
37658;DHT22;23500;53.268;8.308;2022-07-10T02:48:50;19.50;67.00
37658;DHT22;23500;53.268;8.308;2022-07-10T02:51:16;19.50;68.00
37658;DHT22;23500;53.268;8.308;2022-07-10T02:53:42;19.50;67.70
37658;DHT22;23500;53.268;8.308;2022-07-10T02:56:07;19.50;67.40
37658;DHT22;23500;53.268;8.308;2022-07-10T02:58:34;19.50;67.90
37658;DHT22;23500;53.268;8.308;2022-07-10T03:00:59;19.50;67.90
37658;DHT22;23500;53.268;8.308;2022-07-10T03:03:25;19.50;67.70
37658;DHT22;23500;53.268;8.308;2022-07-10T03:05:51;19.50;67.20
37658;DHT22;23500;53.268;8.308;2022-07-10T03:08:17;19.40;67.20
37658;DHT22;23500;53.268;8.308;2022-07-10T03:10:42;19.40;67.50
37658;DHT22;23500;53.268;8.308;2022-07-10T03:13:08;19.40;67.40
37658;DHT22;23500;53.268;8.308;2022-07-10T03:15:33;19.40;67.50
37658;DHT22;23500;53.268;8.308;2022-07-10T03:17:59;19.40;67.70
37658;DHT22;23500;53.268;8.308;2022-07-10T03:20:25;19.40;68.70
37658;DHT22;23500;53.268;8.308;2022-07-10T03:22:51;19.40;67.90
37658;DHT22;23500;53.268;8.308;2022-07-10T03:25:17;19.40;67.80
37658;DHT22;23500;53.268;8.308;2022-07-10T03:27:42;19.40;68.10
37658;DHT22;23500;53.268;8.308;2022-07-10T03:30:09;19.40;67.10
37658;DHT22;23500;53.268;8.308;2022-07-10T03:32:35;19.40;67.10
37658;DHT22;23500;53.268;8.308;2022-07-10T03:35:00;19.30;67.10
37658;DHT22;23500;53.268;8.308;2022-07-10T03:37:26;19.30;67.00
37658;DHT22;23500;53.268;8.308;2022-07-10T03:39:52;19.30;67.20
37658;DHT22;23500;53.268;8.308;2022-07-10T03:42:18;19.30;67.20
37658;DHT22;23500;53.268;8.308;2022-07-10T03:44:44;19.30;67.10
37658;DHT22;23500;53.268;8.308;2022-07-10T03:47:10;19.30;67.00
37658;DHT22;23500;53.268;8.308;2022-07-10T03:49:36;19.30;67.00
37658;DHT22;23500;53.268;8.308;2022-07-10T03:52:04;19.20;66.90
37658;DHT22;23500;53.268;8.308;2022-07-10T03:54:30;19.20;66.90
37658;DHT22;23500;53.268;8.308;2022-07-10T03:56:57;19.20;67.20
37658;DHT22;23500;53.268;8.308;2022-07-10T03:59:41;19.20;66.90
37658;DHT22;23500;53.268;8.308;2022-07-10T04:02:07;19.20;66.90
37658;DHT22;23500;53.268;8.308;2022-07-10T04:04:32;19.20;67.60
37658;DHT22;23500;53.268;8.308;2022-07-10T04:06:58;19.20;67.00
37658;DHT22;23500;53.268;8.308;2022-07-10T04:09:24;19.20;66.90
37658;DHT22;23500;53.268;8.308;2022-07-10T04:11:50;19.20;67.00
37658;DHT22;23500;53.268;8.308;2022-07-10T04:14:16;19.20;66.90
37658;DHT22;23500;53.268;8.308;2022-07-10T04:16:41;19.20;67.00
37658;DHT22;23500;53.268;8.308;2022-07-10T04:19:07;19.20;67.00
37658;DHT22;23500;53.268;8.308;2022-07-10T04:21:33;19.20;66.90
37658;DHT22;23500;53.268;8.308;2022-07-10T04:23:58;19.30;67.60
37658;DHT22;23500;53.268;8.308;2022-07-10T04:26:24;19.30;67.20
37658;DHT22;23500;53.268;8.308;2022-07-10T04:28:50;19.40;67.30
37658;DHT22;23500;53.268;8.308;2022-07-10T04:31:16;19.60;66.20
37658;DHT22;23500;53.268;8.308;2022-07-10T04:33:41;19.70;65.40
37658;DHT22;23500;53.268;8.308;2022-07-10T04:36:07;19.90;65.60
37658;DHT22;23500;53.268;8.308;2022-07-10T04:38:33;20.10;65.90
37658;DHT22;23500;53.268;8.308;2022-07-10T04:40:59;20.30;65.00
37658;DHT22;23500;53.268;8.308;2022-07-10T04:43:25;20.30;64.80
37658;DHT22;23500;53.268;8.308;2022-07-10T04:45:51;20.30;64.70
37658;DHT22;23500;53.268;8.308;2022-07-10T04:48:16;20.30;65.50
37658;DHT22;23500;53.268;8.308;2022-07-10T04:50:42;20.50;64.50
37658;DHT22;23500;53.268;8.308;2022-07-10T04:53:08;20.60;64.70
37658;DHT22;23500;53.268;8.308;2022-07-10T04:55:33;20.80;64.40
37658;DHT22;23500;53.268;8.308;2022-07-10T04:57:59;20.80;63.60
37658;DHT22;23500;53.268;8.308;2022-07-10T05:00:25;20.80;64.50
37658;DHT22;23500;53.268;8.308;2022-07-10T05:02:50;20.70;64.90
37658;DHT22;23500;53.268;8.308;2022-07-10T05:05:16;20.60;65.00
37658;DHT22;23500;53.268;8.308;2022-07-10T05:07:42;20.60;64.50
37658;DHT22;23500;53.268;8.308;2022-07-10T05:10:08;20.50;64.00
37658;DHT22;23500;53.268;8.308;2022-07-10T05:12:34;20.50;64.20
37658;DHT22;23500;53.268;8.308;2022-07-10T05:15:00;20.50;63.80
37658;DHT22;23500;53.268;8.308;2022-07-10T05:17:26;20.40;64.50
37658;DHT22;23500;53.268;8.308;2022-07-10T05:19:56;20.40;64.80
37658;DHT22;23500;53.268;8.308;2022-07-10T05:22:22;20.50;64.50
37658;DHT22;23500;53.268;8.308;2022-07-10T05:24:48;20.60;63.70
37658;DHT22;23500;53.268;8.308;2022-07-10T05:27:14;20.80;64.80
37658;DHT22;23500;53.268;8.308;2022-07-10T05:29:41;20.90;64.50
37658;DHT22;23500;53.268;8.308;2022-07-10T05:32:07;21.10;64.30
37658;DHT22;23500;53.268;8.308;2022-07-10T05:34:33;21.10;64.00
37658;DHT22;23500;53.268;8.308;2022-07-10T05:36:59;21.10;64.10
37658;DHT22;23500;53.268;8.308;2022-07-10T05:39:25;21.10;64.20
37658;DHT22;23500;53.268;8.308;2022-07-10T05:41:52;21.00;63.90
37658;DHT22;23500;53.268;8.308;2022-07-10T05:44:19;21.00;63.70
37658;DHT22;23500;53.268;8.308;2022-07-10T05:46:46;20.90;63.40
37658;DHT22;23500;53.268;8.308;2022-07-10T05:49:12;20.90;63.40
37658;DHT22;23500;53.268;8.308;2022-07-10T05:51:37;20.80;62.50
37658;DHT22;23500;53.268;8.308;2022-07-10T05:54:03;20.80;62.70
37658;DHT22;23500;53.268;8.308;2022-07-10T05:56:29;20.80;63.20
37658;DHT22;23500;53.268;8.308;2022-07-10T05:58:56;20.70;63.10
37658;DHT22;23500;53.268;8.308;2022-07-10T06:01:22;20.70;62.90
37658;DHT22;23500;53.268;8.308;2022-07-10T06:03:48;20.70;63.10
37658;DHT22;23500;53.268;8.308;2022-07-10T06:06:14;20.70;63.70
37658;DHT22;23500;53.268;8.308;2022-07-10T06:08:43;20.80;64.60
37658;DHT22;23500;53.268;8.308;2022-07-10T06:11:09;20.90;64.50
37658;DHT22;23500;53.268;8.308;2022-07-10T06:13:34;21.00;64.30
37658;DHT22;23500;53.268;8.308;2022-07-10T06:16:00;21.00;64.40
37658;DHT22;23500;53.268;8.308;2022-07-10T06:18:26;20.90;64.40
37658;DHT22;23500;53.268;8.308;2022-07-10T06:20:51;21.00;64.40
37658;DHT22;23500;53.268;8.308;2022-07-10T06:23:17;21.00;64.40
37658;DHT22;23500;53.268;8.308;2022-07-10T06:25:43;21.00;64.30
37658;DHT22;23500;53.268;8.308;2022-07-10T06:28:08;21.00;64.30
37658;DHT22;23500;53.268;8.308;2022-07-10T06:30:34;21.10;64.30
37658;DHT22;23500;53.268;8.308;2022-07-10T06:33:00;21.20;64.10
37658;DHT22;23500;53.268;8.308;2022-07-10T06:35:25;21.20;63.80
37658;DHT22;23500;53.268;8.308;2022-07-10T06:37:51;21.30;63.60
37658;DHT22;23500;53.268;8.308;2022-07-10T06:40:17;21.30;63.50
37658;DHT22;23500;53.268;8.308;2022-07-10T06:42:45;21.40;63.40
37658;DHT22;23500;53.268;8.308;2022-07-10T06:45:11;21.40;63.40
37658;DHT22;23500;53.268;8.308;2022-07-10T06:47:37;21.50;63.20
37658;DHT22;23500;53.268;8.308;2022-07-10T06:50:21;21.50;63.20
37658;DHT22;23500;53.268;8.308;2022-07-10T06:52:48;21.50;63.10
37658;DHT22;23500;53.268;8.308;2022-07-10T06:55:13;21.40;63.20
37658;DHT22;23500;53.268;8.308;2022-07-10T06:57:39;21.40;64.10
37658;DHT22;23500;53.268;8.308;2022-07-10T07:00:06;21.40;63.50
37658;DHT22;23500;53.268;8.308;2022-07-10T07:02:32;21.30;63.50
37658;DHT22;23500;53.268;8.308;2022-07-10T07:04:57;21.30;63.70
37658;DHT22;23500;53.268;8.308;2022-07-10T07:07:23;21.30;63.60
37658;DHT22;23500;53.268;8.308;2022-07-10T07:09:49;21.30;63.60
37658;DHT22;23500;53.268;8.308;2022-07-10T07:12:17;21.30;63.60
37658;DHT22;23500;53.268;8.308;2022-07-10T07:14:43;21.40;63.50
37658;DHT22;23500;53.268;8.308;2022-07-10T07:17:09;21.30;63.60
37658;DHT22;23500;53.268;8.308;2022-07-10T07:19:37;21.30;63.60
37658;DHT22;23500;53.268;8.308;2022-07-10T07:22:23;21.30;63.70
37658;DHT22;23500;53.268;8.308;2022-07-10T07:25:08;21.30;63.80
37658;DHT22;23500;53.268;8.308;2022-07-10T07:27:36;21.30;63.80
37658;DHT22;23500;53.268;8.308;2022-07-10T07:30:07;21.20;63.70
37658;DHT22;23500;53.268;8.308;2022-07-10T07:32:33;21.20;63.80
37658;DHT22;23500;53.268;8.308;2022-07-10T07:34:59;21.20;63.90
37658;DHT22;23500;53.268;8.308;2022-07-10T07:37:38;21.20;63.90
37658;DHT22;23500;53.268;8.308;2022-07-10T07:40:07;21.20;64.30
37658;DHT22;23500;53.268;8.308;2022-07-10T07:42:34;21.20;63.90
37658;DHT22;23500;53.268;8.308;2022-07-10T07:44:59;21.20;63.80
37658;DHT22;23500;53.268;8.308;2022-07-10T07:47:25;21.20;63.90
37658;DHT22;23500;53.268;8.308;2022-07-10T07:49:51;21.20;63.80
37658;DHT22;23500;53.268;8.308;2022-07-10T07:52:17;21.20;63.80
37658;DHT22;23500;53.268;8.308;2022-07-10T07:54:44;21.10;63.80
37658;DHT22;23500;53.268;8.308;2022-07-10T07:57:10;21.10;63.80
37658;DHT22;23500;53.268;8.308;2022-07-10T07:59:36;21.10;63.80
37658;DHT22;23500;53.268;8.308;2022-07-10T08:02:02;21.10;63.80
37658;DHT22;23500;53.268;8.308;2022-07-10T08:04:27;21.10;63.80
37658;DHT22;23500;53.268;8.308;2022-07-10T08:06:53;21.20;63.70
37658;DHT22;23500;53.268;8.308;2022-07-10T08:09:19;21.20;63.70
37658;DHT22;23500;53.268;8.308;2022-07-10T08:11:45;21.20;63.80
37658;DHT22;23500;53.268;8.308;2022-07-10T08:14:12;21.20;63.70
37658;DHT22;23500;53.268;8.308;2022-07-10T08:16:38;21.20;63.70
37658;DHT22;23500;53.268;8.308;2022-07-10T08:19:05;21.20;63.60
37658;DHT22;23500;53.268;8.308;2022-07-10T08:21:30;21.20;63.60
37658;DHT22;23500;53.268;8.308;2022-07-10T08:23:57;21.20;63.60
37658;DHT22;23500;53.268;8.308;2022-07-10T08:26:23;21.20;63.70
37658;DHT22;23500;53.268;8.308;2022-07-10T08:28:48;21.20;63.60
37658;DHT22;23500;53.268;8.308;2022-07-10T08:31:14;21.20;63.60
37658;DHT22;23500;53.268;8.308;2022-07-10T08:33:39;21.20;63.60
37658;DHT22;23500;53.268;8.308;2022-07-10T08:36:06;21.20;63.60
37658;DHT22;23500;53.268;8.308;2022-07-10T08:38:31;21.20;63.60
37658;DHT22;23500;53.268;8.308;2022-07-10T08:40:57;21.20;63.60
37658;DHT22;23500;53.268;8.308;2022-07-10T08:43:25;21.20;63.60
37658;DHT22;23500;53.268;8.308;2022-07-10T08:45:51;21.20;63.60
37658;DHT22;23500;53.268;8.308;2022-07-10T08:48:22;21.20;63.50
37658;DHT22;23500;53.268;8.308;2022-07-10T08:50:51;21.20;63.50
37658;DHT22;23500;53.268;8.308;2022-07-10T08:53:30;21.20;63.50
37658;DHT22;23500;53.268;8.308;2022-07-10T08:55:59;21.20;63.50
37658;DHT22;23500;53.268;8.308;2022-07-10T08:58:26;21.20;63.50
37658;DHT22;23500;53.268;8.308;2022-07-10T09:00:52;21.20;63.50
37658;DHT22;23500;53.268;8.308;2022-07-10T09:03:19;21.20;63.50
37658;DHT22;23500;53.268;8.308;2022-07-10T09:05:45;21.20;63.50
37658;DHT22;23500;53.268;8.308;2022-07-10T09:08:28;21.20;63.50
37658;DHT22;23500;53.268;8.308;2022-07-10T09:11:16;21.20;63.50
37658;DHT22;23500;53.268;8.308;2022-07-10T09:13:52;21.20;63.50
37658;DHT22;23500;53.268;8.308;2022-07-10T09:16:26;21.20;63.50
37658;DHT22;23500;53.268;8.308;2022-07-10T09:18:52;21.20;63.50
37658;DHT22;23500;53.268;8.308;2022-07-10T09:21:19;21.20;63.50
37658;DHT22;23500;53.268;8.308;2022-07-10T09:23:45;21.20;63.60
37658;DHT22;23500;53.268;8.308;2022-07-10T09:26:11;21.20;63.50
37658;DHT22;23500;53.268;8.308;2022-07-10T09:28:37;21.20;63.40
37658;DHT22;23500;53.268;8.308;2022-07-10T09:31:04;21.20;63.30
37658;DHT22;23500;53.268;8.308;2022-07-10T09:33:31;21.20;63.20
37658;DHT22;23500;53.268;8.308;2022-07-10T09:36:05;21.20;63.20
37658;DHT22;23500;53.268;8.308;2022-07-10T09:41:14;21.20;63.40
37658;DHT22;23500;53.268;8.308;2022-07-10T09:43:48;21.20;63.50
37658;DHT22;23500;53.268;8.308;2022-07-10T09:46:15;21.20;63.50
37658;DHT22;23500;53.268;8.308;2022-07-10T09:48:41;21.20;63.50
37658;DHT22;23500;53.268;8.308;2022-07-10T09:51:10;21.20;63.40
37658;DHT22;23500;53.268;8.308;2022-07-10T09:53:39;21.20;63.40
37658;DHT22;23500;53.268;8.308;2022-07-10T09:56:07;21.20;63.50
37658;DHT22;23500;53.268;8.308;2022-07-10T09:58:34;21.30;63.40
37658;DHT22;23500;53.268;8.308;2022-07-10T10:01:02;21.30;63.40
37658;DHT22;23500;53.268;8.308;2022-07-10T10:03:36;21.30;63.30
37658;DHT22;23500;53.268;8.308;2022-07-10T10:06:16;21.30;63.30
37658;DHT22;23500;53.268;8.308;2022-07-10T10:09:03;21.30;63.30
37658;DHT22;23500;53.268;8.308;2022-07-10T10:11:32;21.30;63.30
37658;DHT22;23500;53.268;8.308;2022-07-10T10:14:01;21.30;63.20
37658;DHT22;23500;53.268;8.308;2022-07-10T10:16:27;21.30;63.20
37658;DHT22;23500;53.268;8.308;2022-07-10T10:18:55;21.30;63.10
37658;DHT22;23500;53.268;8.308;2022-07-10T10:21:40;21.30;63.10
37658;DHT22;23500;53.268;8.308;2022-07-10T10:24:06;21.30;63.10
37658;DHT22;23500;53.268;8.308;2022-07-10T10:26:32;21.30;63.10
37658;DHT22;23500;53.268;8.308;2022-07-10T10:29:00;21.30;63.20
37658;DHT22;23500;53.268;8.308;2022-07-10T10:31:28;21.30;63.10
37658;DHT22;23500;53.268;8.308;2022-07-10T10:33:55;21.30;63.00
37658;DHT22;23500;53.268;8.308;2022-07-10T10:39:08;21.30;63.60
37658;DHT22;23500;53.268;8.308;2022-07-10T10:41:40;21.30;63.00
37658;DHT22;23500;53.268;8.308;2022-07-10T10:47:01;21.30;62.90
37658;DHT22;23500;53.268;8.308;2022-07-10T10:52:17;21.30;63.10
37658;DHT22;23500;53.268;8.308;2022-07-10T10:55:12;21.20;63.20
37658;DHT22;23500;53.268;8.308;2022-07-10T10:57:40;21.20;63.20
37658;DHT22;23500;53.268;8.308;2022-07-10T11:00:14;21.20;63.30
37658;DHT22;23500;53.268;8.308;2022-07-10T11:02:41;21.20;63.30
37658;DHT22;23500;53.268;8.308;2022-07-10T11:13:00;21.30;63.20
37658;DHT22;23500;53.268;8.308;2022-07-10T11:15:30;21.30;63.20
37658;DHT22;23500;53.268;8.308;2022-07-10T11:20:34;21.30;63.20
37658;DHT22;23500;53.268;8.308;2022-07-10T11:26:02;21.30;63.40
37658;DHT22;23500;53.268;8.308;2022-07-10T11:29:04;21.30;63.40
37658;DHT22;23500;53.268;8.308;2022-07-10T11:31:33;21.30;63.50
37658;DHT22;23500;53.268;8.308;2022-07-10T11:34:10;21.30;63.60
37658;DHT22;23500;53.268;8.308;2022-07-10T11:36:39;21.30;63.90
37658;DHT22;23500;53.268;8.308;2022-07-10T11:39:09;21.30;64.00
37658;DHT22;23500;53.268;8.308;2022-07-10T11:41:45;21.30;64.20
37658;DHT22;23500;53.268;8.308;2022-07-10T11:44:15;21.30;64.30
37658;DHT22;23500;53.268;8.308;2022-07-10T11:46:45;21.30;64.30
37658;DHT22;23500;53.268;8.308;2022-07-10T11:49:14;21.30;64.30
37658;DHT22;23500;53.268;8.308;2022-07-10T11:51:40;21.30;64.30
37658;DHT22;23500;53.268;8.308;2022-07-10T11:54:07;21.30;64.30
37658;DHT22;23500;53.268;8.308;2022-07-10T11:56:36;21.30;64.30
37658;DHT22;23500;53.268;8.308;2022-07-10T11:59:09;21.30;64.30
37658;DHT22;23500;53.268;8.308;2022-07-10T12:01:44;21.30;64.30
37658;DHT22;23500;53.268;8.308;2022-07-10T12:04:12;21.40;64.30
37658;DHT22;23500;53.268;8.308;2022-07-10T12:06:40;21.40;64.20
37658;DHT22;23500;53.268;8.308;2022-07-10T12:09:11;21.40;64.40
37658;DHT22;23500;53.268;8.308;2022-07-10T12:11:39;21.40;64.30
37658;DHT22;23500;53.268;8.308;2022-07-10T12:14:20;21.30;64.30
37658;DHT22;23500;53.268;8.308;2022-07-10T12:16:50;21.40;64.20
37658;DHT22;23500;53.268;8.308;2022-07-10T12:19:18;21.40;64.30
37658;DHT22;23500;53.268;8.308;2022-07-10T12:21:46;21.40;64.30
37658;DHT22;23500;53.268;8.308;2022-07-10T12:24:13;21.40;64.20
37658;DHT22;23500;53.268;8.308;2022-07-10T12:26:42;21.40;64.30
37658;DHT22;23500;53.268;8.308;2022-07-10T12:29:29;21.40;64.20
37658;DHT22;23500;53.268;8.308;2022-07-10T12:32:00;21.40;64.10
37658;DHT22;23500;53.268;8.308;2022-07-10T12:34:39;21.40;64.30
37658;DHT22;23500;53.268;8.308;2022-07-10T12:37:12;21.40;64.20
37658;DHT22;23500;53.268;8.308;2022-07-10T12:39:47;21.40;64.20
37658;DHT22;23500;53.268;8.308;2022-07-10T12:42:13;21.40;64.40
37658;DHT22;23500;53.268;8.308;2022-07-10T12:44:49;21.40;64.40
37658;DHT22;23500;53.268;8.308;2022-07-10T12:47:16;21.40;64.60
37658;DHT22;23500;53.268;8.308;2022-07-10T12:50:04;21.40;64.50
37658;DHT22;23500;53.268;8.308;2022-07-10T12:52:32;21.40;64.50
37658;DHT22;23500;53.268;8.308;2022-07-10T12:55:22;21.40;64.60
37658;DHT22;23500;53.268;8.308;2022-07-10T12:57:54;21.40;65.30
37658;DHT22;23500;53.268;8.308;2022-07-10T13:00:24;21.40;64.60
37658;DHT22;23500;53.268;8.308;2022-07-10T13:03:09;21.40;64.60
37658;DHT22;23500;53.268;8.308;2022-07-10T13:05:39;21.40;64.60
37658;DHT22;23500;53.268;8.308;2022-07-10T13:08:16;21.40;64.50
37658;DHT22;23500;53.268;8.308;2022-07-10T13:10:48;21.40;64.60
37658;DHT22;23500;53.268;8.308;2022-07-10T13:13:14;21.40;64.60
37658;DHT22;23500;53.268;8.308;2022-07-10T13:15:40;21.40;64.60
37658;DHT22;23500;53.268;8.308;2022-07-10T13:18:24;21.40;64.60
37658;DHT22;23500;53.268;8.308;2022-07-10T13:20:55;21.40;64.60
37658;DHT22;23500;53.268;8.308;2022-07-10T13:23:23;21.40;64.50
37658;DHT22;23500;53.268;8.308;2022-07-10T13:25:51;21.40;64.50
37658;DHT22;23500;53.268;8.308;2022-07-10T13:28:17;21.40;64.50
37658;DHT22;23500;53.268;8.308;2022-07-10T13:30:43;21.40;64.40
37658;DHT22;23500;53.268;8.308;2022-07-10T13:33:09;21.40;64.40
37658;DHT22;23500;53.268;8.308;2022-07-10T13:35:35;21.40;64.40
37658;DHT22;23500;53.268;8.308;2022-07-10T13:38:02;21.40;64.40
37658;DHT22;23500;53.268;8.308;2022-07-10T13:40:33;21.40;64.50
37658;DHT22;23500;53.268;8.308;2022-07-10T13:42:59;21.40;64.40
37658;DHT22;23500;53.268;8.308;2022-07-10T13:45:26;21.40;64.40
37658;DHT22;23500;53.268;8.308;2022-07-10T13:47:58;21.40;64.40
37658;DHT22;23500;53.268;8.308;2022-07-10T13:50:24;21.40;64.40
37658;DHT22;23500;53.268;8.308;2022-07-10T13:52:51;21.40;64.40
37658;DHT22;23500;53.268;8.308;2022-07-10T13:55:17;21.40;64.40
37658;DHT22;23500;53.268;8.308;2022-07-10T13:57:43;21.40;64.40
37658;DHT22;23500;53.268;8.308;2022-07-10T14:00:09;21.40;65.10
37658;DHT22;23500;53.268;8.308;2022-07-10T14:02:36;21.40;64.40
37658;DHT22;23500;53.268;8.308;2022-07-10T14:05:02;21.40;64.40
37658;DHT22;23500;53.268;8.308;2022-07-10T14:07:28;21.40;64.40
37658;DHT22;23500;53.268;8.308;2022-07-10T14:09:54;21.40;64.40
37658;DHT22;23500;53.268;8.308;2022-07-10T14:12:20;21.40;64.40
37658;DHT22;23500;53.268;8.308;2022-07-10T14:14:46;21.40;64.50
37658;DHT22;23500;53.268;8.308;2022-07-10T14:17:12;21.40;64.60
37658;DHT22;23500;53.268;8.308;2022-07-10T14:19:38;21.40;64.60
37658;DHT22;23500;53.268;8.308;2022-07-10T14:22:04;21.40;64.60
37658;DHT22;23500;53.268;8.308;2022-07-10T14:24:29;21.40;64.60
37658;DHT22;23500;53.268;8.308;2022-07-10T14:26:55;21.40;64.50
37658;DHT22;23500;53.268;8.308;2022-07-10T14:29:21;21.40;64.50
37658;DHT22;23500;53.268;8.308;2022-07-10T14:31:47;21.40;64.60
37658;DHT22;23500;53.268;8.308;2022-07-10T14:34:15;21.40;64.60
37658;DHT22;23500;53.268;8.308;2022-07-10T14:36:41;21.30;64.60
37658;DHT22;23500;53.268;8.308;2022-07-10T14:39:07;21.30;64.60
37658;DHT22;23500;53.268;8.308;2022-07-10T14:41:33;21.30;64.60
37658;DHT22;23500;53.268;8.308;2022-07-10T14:43:58;21.30;64.60
37658;DHT22;23500;53.268;8.308;2022-07-10T14:46:24;21.30;64.60
37658;DHT22;23500;53.268;8.308;2022-07-10T14:48:50;21.30;64.60
37658;DHT22;23500;53.268;8.308;2022-07-10T14:51:16;21.30;64.60
37658;DHT22;23500;53.268;8.308;2022-07-10T14:53:42;21.30;64.60
37658;DHT22;23500;53.268;8.308;2022-07-10T14:56:11;21.30;64.70
37658;DHT22;23500;53.268;8.308;2022-07-10T14:58:37;21.30;64.70
37658;DHT22;23500;53.268;8.308;2022-07-10T15:01:03;21.30;64.70
37658;DHT22;23500;53.268;8.308;2022-07-10T15:03:29;21.30;64.70
37658;DHT22;23500;53.268;8.308;2022-07-10T15:05:55;21.30;64.70
37658;DHT22;23500;53.268;8.308;2022-07-10T15:08:23;21.30;64.70
37658;DHT22;23500;53.268;8.308;2022-07-10T15:10:49;21.30;64.70
37658;DHT22;23500;53.268;8.308;2022-07-10T15:13:15;21.30;64.70
37658;DHT22;23500;53.268;8.308;2022-07-10T15:15:41;21.30;64.70
37658;DHT22;23500;53.268;8.308;2022-07-10T15:18:07;21.30;64.70
37658;DHT22;23500;53.268;8.308;2022-07-10T15:20:33;21.30;64.70
37658;DHT22;23500;53.268;8.308;2022-07-10T15:22:59;21.30;64.70
37658;DHT22;23500;53.268;8.308;2022-07-10T15:25:25;21.30;64.70
37658;DHT22;23500;53.268;8.308;2022-07-10T15:27:51;21.30;64.70
37658;DHT22;23500;53.268;8.308;2022-07-10T15:30:18;21.30;64.70
37658;DHT22;23500;53.268;8.308;2022-07-10T15:32:44;21.30;65.30
37658;DHT22;23500;53.268;8.308;2022-07-10T15:35:11;21.30;64.50
37658;DHT22;23500;53.268;8.308;2022-07-10T15:37:37;21.30;64.50
37658;DHT22;23500;53.268;8.308;2022-07-10T15:40:04;21.30;64.50
37658;DHT22;23500;53.268;8.308;2022-07-10T15:42:30;21.30;64.50
37658;DHT22;23500;53.268;8.308;2022-07-10T15:44:56;21.30;64.50
37658;DHT22;23500;53.268;8.308;2022-07-10T15:47:21;21.30;64.50
37658;DHT22;23500;53.268;8.308;2022-07-10T15:49:47;21.30;64.50
37658;DHT22;23500;53.268;8.308;2022-07-10T15:52:13;21.30;64.50
37658;DHT22;23500;53.268;8.308;2022-07-10T15:54:39;21.30;64.60
37658;DHT22;23500;53.268;8.308;2022-07-10T15:57:05;21.30;64.70